Warning: Javascript must be enabled to use all the features on this page!


Page Loading - Please Wait...

Click to hideNews Bulletins

Peak Streamflow for the Nation

USGS 07341000 Saline River near Dierks, AR

Howard County, Arkansas
Hydrologic Unit Code 11140109
Latitude  34°05'46", Longitude  94°05'06" NAD83
Drainage area 124  square miles
Gage datum 353.09 feet above NGVD29
Output formats
Table
Graph
Tab-separated file
peakfq (watstore) format
Reselect output format
Water
Year
Date Gage
Height
(feet)
Stream-
flow
(cfs)
1920 1920 21.90Bm 42,0007,Bm
1939 1939-04-16 17.10 12,000
1940 1940-05-18 17.00 11,700
1941 1941-07-14 18.75 20,100
1942 1942-04-08 17.07 12,000
1943 1942-12-27 12.04 3,940
1944 1944-05-01 16.68 10,800
1945 1945-03-30 19.93 31,200
1946 1946-05-25 16.43 10,600
1947 1947-08-28 15.00 7,160
1948 1948-03-01 13.21 5,050
1949 1949-01-24 16.65 9,800
1950 1950-09-16 15.32 7,610
1951 1951-01-14 13.83 5,630
1952 1952-04-22 16.54 11,000
1953 1953-05-11 18.56 16,500
1954 1954-05-02 11.15 3,640
1955 1955-09-23 17.23 12,600
1956 1956-04-30 17.71 14,000
1957 1957-03-17 14.25 6,490
1958 1957-11-13 15.80 9,140
1959 1959-02-14 15.12 7,770
1960 1959-12-16 14.36 6,740
1961 1961-05-06 22.50 52,000
1962 1961-11-22 12.88 5,110
1963 1963-03-11 10.51 2,760
1964 1964-04-24 17.00 12,100
1965 1965-01-09 12.56 4,840
1966 1966-08-14 16.53 10,800
1967 1967-05-06 17.22 12,600
1968 1968-05-13 22.95 59,200
1969 1969-01-30 20.77 28,6005
1970 1970-04-26 13.89 6,6505
1971 1970-12-22 8.81 1,3705
1972 1971-12-10 20.24 24,4005
1973 1972-10-31 11.56 3,7505
1974 1974-06-08 14.08 6,9105
1975 1975-02-01 12.41 4,8505
1976 1976-03-16 8.21 1,2206
1977 1977-03-31 8.41 1,3406
1978 1978-03-13 7.96 1,0806
1979 1979-06-02 12.37 4,8106
1980 1980-09-27 8.79 1,5006
1981 1981-06-16 8.79 1,5306
1982 1982-06-28 11.76 4,1406
1983 1983-07-02 17.33 12,9006
1984 1983-12-06 8.19 1,1506
1985 1985-04-22 8.96 1,6106
1986 1986-04-04 11.27 3,5906
1987 1987-03-17 10.02 2,4106
1988 1987-11-25 8.85 1,5406
1989 1988-11-19 9.27 1,8206
1990 1990-03-08 12.88 5,4006
1991 1990-12-21 11.28 3,6006
1992 1991-11-19 9.56 2,0406
1993 1993-01-04 8.45 1,5706
1994 1993-12-03 12.71 5,2006
1995 1995-03-07 10.88 3,2106
1996 1996-04-16 7.80 1,0206
1997 1996-11-24 9.97 2,4406
1998 1998-01-05 7.95 1,0606
1999 1998-12-04 8.53 1,3906
2000 2000-06-21 8.46 1,3506
2001 2001-02-16 9.80 2,2306
2002 2002-03-20 10.07 2,3906
2003 2003-02-18 8.29 1,2206
2004 2004-07-04 8.08 1,1206
2005 2005-01-18 8.21 1,1806
2006 2006-03-20 8.08 1,0706
2007 2007-01-14 8.60 1,3906
2008 2008-04-04 8.39 1,2706
2009 2009-05-02 8.39 1,2706
2010 2009-12-24 10.02 2,3506
2011 2011-04-25 14.54 7,6006
2012 2011-12-09 8.23 1,1906
2013 2013-04-04 7.44 8366
2014 2014-09-11 8.53 1,4006
2015 2015-05-29 9.29 1,8306
2016 2015-12-27 11.97 3,9606
2017 2017-04-11 9.00 1,6606
2018 2018-03-01 11.22 3,2706
2019 2019-07-16 17.88 15,1006
2020 2020-08-30 11.11 3,2606
2021 2021-06-08 12.53 4,7806
?
  Peak Gage-Height Qualification Codes.
?
  Peak Streamflow Qualification Codes.